createdAt,value
2018-12-26T00:00:29.915Z,103279.20
2018-12-26T00:02:58.752Z,103275.89
2018-12-26T00:05:28.488Z,103264.68
2018-12-26T00:07:58.778Z,103263.72
2018-12-26T00:10:27.564Z,103268.05
2018-12-26T00:12:56.396Z,103263.41
2018-12-26T00:15:25.192Z,103261.88
2018-12-26T00:17:54.065Z,103266.02
2018-12-26T00:20:22.854Z,103260.46
2018-12-26T00:22:51.935Z,103261.16
2018-12-26T00:25:20.839Z,103255.07
2018-12-26T00:27:49.635Z,103255.73
2018-12-26T00:30:18.419Z,103258.25
2018-12-26T00:32:47.297Z,103251.80
2018-12-26T00:35:16.149Z,103253.03
2018-12-26T00:37:45.003Z,103252.28
2018-12-26T00:40:14.523Z,103251.66
2018-12-26T00:42:43.363Z,103249.27
2018-12-26T00:45:12.151Z,103245.74
2018-12-26T00:47:40.939Z,103245.34
2018-12-26T00:50:10.506Z,103246.75
2018-12-26T00:52:39.316Z,103247.50
2018-12-26T00:55:08.116Z,103245.59
2018-12-26T00:57:36.948Z,103247.39
2018-12-26T01:00:06.755Z,103247.88
2018-12-26T01:02:35.602Z,103244.92
2018-12-26T01:05:04.395Z,103242.66
2018-12-26T01:07:33.719Z,103248.87
2018-12-26T01:10:02.549Z,103239.30
2018-12-26T01:12:31.395Z,103243.65
2018-12-26T01:15:00.213Z,103245.06
2018-12-26T01:17:29.039Z,103247.78
2018-12-26T01:19:57.824Z,103249.23
2018-12-26T01:22:26.614Z,103249.23
2018-12-26T01:24:55.399Z,103245.88
2018-12-26T01:27:24.827Z,103245.34
2018-12-26T01:29:53.668Z,103243.84
2018-12-26T01:32:22.504Z,103241.98
2018-12-26T01:34:51.282Z,103234.48
2018-12-26T01:37:20.073Z,103230.78
2018-12-26T01:39:49.878Z,103230.03
2018-12-26T01:42:18.673Z,103226.90
2018-12-26T01:44:47.535Z,103219.97
2018-12-26T01:47:17.285Z,103223.23
2018-12-26T01:49:47.144Z,103218.12
2018-12-26T01:52:15.991Z,103212.44
2018-12-26T01:54:44.816Z,103211.16
2018-12-26T01:57:14.479Z,103203.49
2018-12-26T01:59:43.286Z,103202.38
2018-12-26T02:02:12.598Z,103206.56
2018-12-26T02:04:41.366Z,103205.99
2018-12-26T02:07:10.795Z,103203.61
2018-12-26T02:09:39.588Z,103202.11
2018-12-26T02:12:08.371Z,103199.94
2018-12-26T02:14:37.304Z,103202.84
2018-12-26T02:17:07.100Z,103204.61
2018-12-26T02:19:35.871Z,103202.05
2018-12-26T02:22:05.649Z,103201.92
2018-12-26T02:24:34.903Z,103200.83
2018-12-26T02:27:03.740Z,103201.05
2018-12-26T02:29:33.202Z,103199.83
2018-12-26T02:32:01.987Z,103206.27
2018-12-26T02:34:30.822Z,103205.45
2018-12-26T02:36:59.671Z,103206.27
2018-12-26T02:39:29.726Z,103203.76
2018-12-26T02:41:58.495Z,103194.62
2018-12-26T02:44:27.823Z,103193.13
2018-12-26T02:46:56.645Z,103196.20
2018-12-26T02:49:25.556Z,103196.73
2018-12-26T02:51:54.381Z,103190.69
2018-12-26T02:54:23.159Z,103197.31
2018-12-26T02:56:52.252Z,103191.55
2018-12-26T02:59:21.572Z,103193.45
2018-12-26T03:01:50.369Z,103194.61
2018-12-26T03:04:20.636Z,103196.16
2018-12-26T03:06:49.411Z,103199.52
2018-12-26T03:09:18.789Z,103194.63
2018-12-26T03:11:48.506Z,103193.09
2018-12-26T03:14:17.301Z,103189.17
2018-12-26T03:16:46.106Z,103185.38
2018-12-26T03:19:16.046Z,103193.09
2018-12-26T03:21:44.819Z,103197.91
2018-12-26T03:24:13.676Z,103193.72
2018-12-26T03:26:42.491Z,103183.17
2018-12-26T03:29:11.284Z,103181.41
2018-12-26T03:31:40.300Z,103179.23
2018-12-26T03:34:09.561Z,103183.12
2018-12-26T03:36:38.355Z,103183.12
2018-12-26T03:39:07.144Z,103175.09
2018-12-26T03:41:35.972Z,103181.17
2018-12-26T03:44:06.206Z,103168.06
2018-12-26T03:46:34.987Z,103157.69
2018-12-26T03:49:03.922Z,103154.59
2018-12-26T03:51:33.318Z,103154.63
2018-12-26T03:54:02.091Z,103152.46
2018-12-26T03:56:31.140Z,103151.75
2018-12-26T03:59:01.149Z,103152.85
2018-12-26T04:01:29.992Z,103150.15
2018-12-26T04:03:58.823Z,103152.17
2018-12-26T04:06:27.814Z,103150.00
2018-12-26T04:08:56.889Z,103146.38
2018-12-26T04:11:25.747Z,103149.11
2018-12-26T04:13:54.468Z,103147.86
2018-12-26T04:16:23.796Z,103139.83
2018-12-26T04:18:52.817Z,103141.32
2018-12-26T04:21:21.752Z,103146.97
2018-12-26T04:23:50.541Z,103142.78
2018-12-26T04:26:20.351Z,103150.67
2018-12-26T04:28:49.334Z,103143.52
2018-12-26T04:31:18.110Z,103143.52
2018-12-26T04:33:48.915Z,103140.03
2018-12-26T04:36:17.663Z,103138.97
2018-12-26T04:38:46.467Z,103142.27
2018-12-26T04:41:15.297Z,103139.72
2018-12-26T04:43:44.644Z,103138.43
2018-12-26T04:46:14.231Z,103129.14
2018-12-26T04:48:43.023Z,103123.09
2018-12-26T04:51:11.857Z,103128.97
2018-12-26T04:53:40.631Z,103127.13
2018-12-26T04:56:09.514Z,103127.69
2018-12-26T04:58:38.306Z,103126.22
2018-12-26T05:01:07.094Z,103127.33
2018-12-26T05:03:35.924Z,103122.77
2018-12-26T05:06:04.798Z,103122.05
2018-12-26T05:08:33.672Z,103121.87
2018-12-26T05:11:03.428Z,103122.23
2018-12-26T05:13:33.643Z,103114.94
2018-12-26T05:16:02.476Z,103115.83
2018-12-26T05:18:31.677Z,103124.08
2018-12-26T05:21:01.251Z,103119.88
2018-12-26T05:23:30.214Z,103122.47
2018-12-26T05:25:58.982Z,103125.21
2018-12-26T05:28:27.761Z,103126.31
2018-12-26T05:30:56.538Z,103124.31
2018-12-26T05:33:25.311Z,103127.27
2018-12-26T05:35:54.103Z,103134.23
2018-12-26T05:38:23.491Z,103134.05
2018-12-26T05:40:52.291Z,103140.12
2018-12-26T05:43:21.208Z,103141.44
2018-12-26T05:45:50.026Z,103143.09
2018-12-26T05:48:18.803Z,103131.23
2018-12-26T05:50:47.675Z,103124.64
2018-12-26T05:53:16.521Z,103123.75
2018-12-26T05:55:45.328Z,103132.36
2018-12-26T05:58:14.122Z,103134.20
2018-12-26T06:00:43.030Z,103129.10
2018-12-26T06:03:12.475Z,103133.30
2018-12-26T06:05:42.610Z,103137.36
2018-12-26T06:08:11.767Z,103139.00
2018-12-26T06:10:40.710Z,103132.97
2018-12-26T06:13:09.502Z,103138.66
2018-12-26T06:15:38.331Z,103140.69
2018-12-26T06:18:08.311Z,103145.63
2018-12-26T06:20:35.883Z,103146.91
2018-12-26T06:23:04.666Z,103142.53
2018-12-26T06:25:34.293Z,103150.95
2018-12-26T06:28:03.071Z,103155.19
2018-12-26T06:30:32.050Z,103150.98
2018-12-26T06:33:00.832Z,103150.27
2018-12-26T06:35:29.700Z,103151.93
2018-12-26T06:37:58.472Z,103151.93
2018-12-26T06:40:28.119Z,103151.93
2018-12-26T06:42:56.914Z,103157.41
2018-12-26T06:45:26.442Z,103152.85
2018-12-26T06:47:55.220Z,103158.00
2018-12-26T06:50:25.041Z,103162.73
2018-12-26T06:52:53.876Z,103162.94
2018-12-26T06:55:22.684Z,103159.09
2018-12-26T06:57:59.860Z,103160.38
2018-12-26T07:00:20.596Z,103157.25
2018-12-26T07:02:49.751Z,103162.73
2018-12-26T07:05:19.525Z,103159.81
2018-12-26T07:07:48.874Z,103164.23
2018-12-26T07:10:18.758Z,103173.02
2018-12-26T07:12:47.665Z,103175.78
2018-12-26T07:15:16.524Z,103175.99
2018-12-26T07:17:45.315Z,103173.95
2018-12-26T07:20:14.895Z,103175.80
2018-12-26T07:22:43.740Z,103168.47
2018-12-26T07:25:12.503Z,103170.11
2018-12-26T07:27:41.820Z,103176.90
2018-12-26T07:30:13.072Z,103175.80
2018-12-26T07:32:41.871Z,103170.67
2018-12-26T07:35:10.652Z,103179.66
2018-12-26T07:37:39.447Z,103178.38
2018-12-26T07:40:08.252Z,103175.06
2018-12-26T07:42:37.110Z,103180.70
2018-12-26T07:45:07.811Z,103173.94
2018-12-26T07:47:36.660Z,103177.27
2018-12-26T07:50:06.781Z,103174.14
2018-12-26T07:52:35.699Z,103173.78
2018-12-26T07:55:04.555Z,103172.17
2018-12-26T07:57:33.351Z,103176.16
2018-12-26T08:00:03.691Z,103178.55
2018-12-26T08:02:32.496Z,103180.94
2018-12-26T08:05:01.292Z,103178.73
2018-12-26T08:07:30.356Z,103178.94
2018-12-26T08:10:00.243Z,103182.78
2018-12-26T08:12:29.057Z,103182.41
2018-12-26T08:14:59.081Z,103186.10
2018-12-26T08:17:27.864Z,103192.89
2018-12-26T08:19:56.736Z,103185.94
2018-12-26T08:22:26.635Z,103184.86
2018-12-26T08:24:55.476Z,103175.34
2018-12-26T08:27:24.283Z,103169.66
2018-12-26T08:29:53.624Z,103160.69
2018-12-26T08:32:22.411Z,103159.97
2018-12-26T08:34:51.199Z,103164.20
2018-12-26T08:37:20.126Z,103172.83
2018-12-26T08:39:48.931Z,103169.19
2018-12-26T08:42:18.579Z,103171.20
2018-12-26T08:44:47.377Z,103171.94
2018-12-26T08:47:16.169Z,103171.22
2018-12-26T08:49:45.859Z,103174.16
2018-12-26T08:52:15.250Z,103170.88
2018-12-26T08:54:44.868Z,103178.95
2018-12-26T08:57:13.727Z,103181.88
2018-12-26T08:59:42.860Z,103180.41
2018-12-26T09:02:12.399Z,103178.56
2018-12-26T09:04:41.657Z,103181.48
2018-12-26T09:07:10.539Z,103179.64
2018-12-26T09:09:39.394Z,103183.69
2018-12-26T09:12:09.881Z,103180.41
2018-12-26T09:14:39.338Z,103182.78
2018-12-26T09:17:08.116Z,103184.44
2018-12-26T09:19:36.946Z,103187.74
2018-12-26T09:22:05.842Z,103181.34
2018-12-26T09:24:34.691Z,103188.32
2018-12-26T09:27:06.680Z,103183.92
2018-12-26T09:29:36.489Z,103182.66
2018-12-26T09:32:05.539Z,103180.28
2018-12-26T09:34:34.379Z,103185.23
2018-12-26T09:37:03.203Z,103183.61
2018-12-26T09:39:32.305Z,103185.63
2018-12-26T09:42:01.443Z,103178.87
2018-12-26T09:44:30.426Z,103181.81
2018-12-26T09:46:59.216Z,103177.25
2018-12-26T09:49:28.837Z,103185.16
2018-12-26T09:51:57.739Z,103182.77
2018-12-26T09:54:26.582Z,103185.70
2018-12-26T09:56:55.376Z,103182.63
2018-12-26T09:59:24.158Z,103177.28
2018-12-26T10:01:54.459Z,103177.50
2018-12-26T10:04:24.300Z,103177.10
2018-12-26T10:06:53.068Z,103175.46
2018-12-26T10:09:21.884Z,103177.31
2018-12-26T10:11:50.682Z,103176.39
2018-12-26T10:14:19.483Z,103177.12
2018-12-26T10:16:48.256Z,103176.40
2018-12-26T10:19:17.247Z,103178.25
2018-12-26T10:21:46.179Z,103178.25
2018-12-26T10:24:14.976Z,103176.97
2018-12-26T10:26:43.807Z,103177.89
2018-12-26T10:29:13.300Z,103168.70
2018-12-26T10:31:42.198Z,103176.25
2018-12-26T10:34:11.288Z,103169.63
2018-12-26T10:36:41.447Z,103171.08
2018-12-26T10:39:10.235Z,103162.84
2018-12-26T10:41:39.036Z,103168.14
2018-12-26T10:44:07.812Z,103166.70
2018-12-26T10:46:36.636Z,103158.06
2018-12-26T10:49:05.532Z,103164.29
2018-12-26T10:51:34.281Z,103165.21
2018-12-26T10:54:03.046Z,103158.23
2018-12-26T10:56:31.931Z,103152.36
2018-12-26T10:59:09.771Z,103149.63
2018-12-26T11:01:31.774Z,103149.99
2018-12-26T11:04:00.531Z,103152.20
2018-12-26T11:06:29.639Z,103155.66
2018-12-26T11:08:58.515Z,103149.23
2018-12-26T11:11:27.299Z,103152.56
2018-12-26T11:13:57.327Z,103146.30
2018-12-26T11:16:27.124Z,103145.37
2018-12-26T11:18:56.240Z,103141.92
2018-12-26T11:21:25.163Z,103142.44
2018-12-26T11:23:55.004Z,103137.30
2018-12-26T11:26:23.811Z,103135.09
2018-12-26T11:28:53.447Z,103131.06
2018-12-26T11:31:22.286Z,103130.70
2018-12-26T11:33:51.550Z,103117.64
2018-12-26T11:36:20.465Z,103121.32
2018-12-26T11:38:49.306Z,103111.91
2018-12-26T11:41:18.291Z,103109.88
2018-12-26T11:43:47.076Z,103102.72
2018-12-26T11:46:15.893Z,103100.13
2018-12-26T11:48:44.692Z,103100.30
2018-12-26T11:51:14.014Z,103100.28
2018-12-26T11:53:42.833Z,103099.38
2018-12-26T11:56:11.664Z,103095.34
2018-12-26T11:58:40.502Z,103088.89
2018-12-26T12:01:09.350Z,103088.52
2018-12-26T12:03:38.183Z,103089.95
2018-12-26T12:06:09.026Z,103084.78
2018-12-26T12:08:37.866Z,103090.13
2018-12-26T12:11:06.688Z,103087.55
2018-12-26T12:13:35.823Z,103088.63
2018-12-26T12:16:05.506Z,103088.47
2018-12-26T12:18:34.298Z,103079.62
2018-12-26T12:21:03.160Z,103078.67
2018-12-26T12:23:32.600Z,103074.45
2018-12-26T12:26:01.593Z,103075.72
2018-12-26T12:28:31.703Z,103075.73
2018-12-26T12:31:00.483Z,103072.61
2018-12-26T12:33:30.351Z,103081.62
2018-12-26T12:35:59.159Z,103078.14
2018-12-26T12:38:28.044Z,103077.37
2018-12-26T12:40:56.854Z,103080.14
2018-12-26T12:43:26.351Z,103080.48
2018-12-26T12:45:56.090Z,103077.53
2018-12-26T12:48:24.985Z,103082.66
2018-12-26T12:50:53.805Z,103081.16
2018-12-26T12:53:25.671Z,103087.42
2018-12-26T12:55:54.495Z,103079.85
2018-12-26T12:58:23.997Z,103079.70
2018-12-26T13:00:52.982Z,103084.08
2018-12-26T13:03:21.867Z,103083.19
2018-12-26T13:05:50.680Z,103077.66
2018-12-26T13:08:19.608Z,103088.86
2018-12-26T13:10:50.153Z,103087.03
2018-12-26T13:13:20.423Z,103080.75
2018-12-26T13:15:49.230Z,103072.11
2018-12-26T13:18:18.145Z,103073.58
2018-12-26T13:20:49.325Z,103071.56
2018-12-26T13:23:18.251Z,103069.17
2018-12-26T13:25:47.180Z,103064.59
2018-12-26T13:28:16.206Z,103064.02
2018-12-26T13:30:45.042Z,103068.39
2018-12-26T13:33:14.451Z,103068.17
2018-12-26T13:35:43.899Z,103064.31
2018-12-26T13:38:12.695Z,103066.33
2018-12-26T13:40:42.085Z,103059.38
2018-12-26T13:43:10.998Z,103072.94
2018-12-26T13:45:39.782Z,103068.36
2018-12-26T13:48:08.676Z,103063.61
2018-12-26T13:50:37.463Z,103060.30
2018-12-26T13:53:06.337Z,103067.81
2018-12-26T13:55:36.179Z,103065.81
2018-12-26T13:58:05.015Z,103070.41
2018-12-26T14:00:33.806Z,103071.91
2018-12-26T14:03:02.587Z,103066.55
2018-12-26T14:05:31.495Z,103059.74
2018-12-26T14:08:00.293Z,103067.25
2018-12-26T14:10:29.112Z,103066.89
2018-12-26T14:12:57.920Z,103076.45
2018-12-26T14:15:26.731Z,103069.83
2018-12-26T14:17:55.540Z,103061.95
2018-12-26T14:20:24.508Z,103066.55
2018-12-26T14:22:53.459Z,103063.61
2018-12-26T14:25:22.243Z,103061.39
2018-12-26T14:27:51.207Z,103063.03
2018-12-26T14:30:19.999Z,103059.74
2018-12-26T14:32:48.865Z,103070.06
2018-12-26T14:35:17.747Z,103059.58
2018-12-26T14:37:46.534Z,103060.52
2018-12-26T14:40:15.398Z,103061.09
2018-12-26T14:42:44.252Z,103067.53
2018-12-26T14:45:13.588Z,103056.68
2018-12-26T14:47:43.227Z,103064.25
2018-12-26T14:50:12.076Z,103062.77
2018-12-26T14:52:41.535Z,103071.61
2018-12-26T14:55:11.078Z,103061.31
2018-12-26T14:57:39.977Z,103056.68
2018-12-26T15:00:09.319Z,103059.25
2018-12-26T15:02:38.817Z,103058.18
2018-12-26T15:05:07.641Z,103055.27
2018-12-26T15:07:36.552Z,103056.72
2018-12-26T15:10:06.546Z,103050.67
2018-12-26T15:12:35.486Z,103050.86
2018-12-26T15:15:04.278Z,103048.66
2018-12-26T15:17:33.120Z,103046.81
2018-12-26T15:20:01.910Z,103045.38
2018-12-26T15:22:32.038Z,103045.38
2018-12-26T15:25:00.950Z,103047.58
2018-12-26T15:27:29.852Z,103045.55
2018-12-26T15:29:58.807Z,103049.05
2018-12-26T15:32:28.064Z,103048.33
2018-12-26T15:34:57.483Z,103053.29
2018-12-26T15:37:26.254Z,103050.00
2018-12-26T15:39:55.075Z,103047.64
2018-12-26T15:42:24.963Z,103049.30
2018-12-26T15:44:53.808Z,103044.53
2018-12-26T15:47:22.592Z,103043.97
2018-12-26T15:49:51.993Z,103039.19
2018-12-26T15:52:20.846Z,103039.77
2018-12-26T15:54:49.689Z,103031.69
2018-12-26T15:57:18.479Z,103035.33
2018-12-26T15:59:48.488Z,103028.74
2018-12-26T16:02:17.264Z,103027.25
2018-12-26T16:04:47.049Z,103023.21
2018-12-26T16:07:15.906Z,103015.86
2018-12-26T16:09:44.815Z,103005.40
2018-12-26T16:12:13.688Z,103018.06
2018-12-26T16:14:42.484Z,103024.87
2018-12-26T16:17:11.275Z,103023.02
2018-12-26T16:19:40.129Z,103020.09
2018-12-26T16:22:09.614Z,103018.78
2018-12-26T16:24:38.547Z,103019.53
2018-12-26T16:27:07.397Z,103019.53
2018-12-26T16:29:36.797Z,103013.65
2018-12-26T16:32:06.315Z,103019.72
2018-12-26T16:34:35.090Z,103016.95
2018-12-26T16:37:03.887Z,103011.83
2018-12-26T16:39:35.814Z,103014.77
2018-12-26T16:42:02.440Z,103015.70
2018-12-26T16:44:31.306Z,103007.83
2018-12-26T16:47:00.794Z,103012.61
2018-12-26T16:49:29.684Z,103010.77
2018-12-26T16:51:58.502Z,103009.28
2018-12-26T16:54:27.316Z,103010.56
2018-12-26T16:56:56.192Z,103012.61
2018-12-26T16:59:25.024Z,103013.55
2018-12-26T17:01:58.688Z,103019.80
2018-12-26T17:04:27.469Z,103017.41
2018-12-26T17:06:56.317Z,103013.73
2018-12-26T17:09:25.479Z,103016.86
2018-12-26T17:11:54.390Z,103024.58
2018-12-26T17:14:23.394Z,103018.51
2018-12-26T17:16:52.224Z,103013.16
2018-12-26T17:19:21.020Z,103013.34
2018-12-26T17:21:49.866Z,103018.49
2018-12-26T17:24:18.647Z,103012.63
2018-12-26T17:26:47.437Z,103027.13
2018-12-26T17:29:16.342Z,103020.51
2018-12-26T17:31:45.155Z,103019.06
2018-12-26T17:34:15.035Z,103023.66
2018-12-26T17:36:43.879Z,103024.75
2018-12-26T17:39:13.037Z,103023.12
2018-12-26T17:41:41.798Z,103021.09
2018-12-26T17:44:10.592Z,103018.77
2018-12-26T17:46:39.420Z,103007.39
2018-12-26T17:49:08.292Z,103004.14
2018-12-26T17:51:37.309Z,103003.80
2018-12-26T17:54:17.440Z,103001.98
2018-12-26T17:57:04.705Z,103006.58
2018-12-26T17:59:44.362Z,103012.86
2018-12-26T18:02:18.230Z,103006.45
2018-12-26T18:04:47.004Z,103001.89
2018-12-26T18:07:15.871Z,103005.00
2018-12-26T18:09:44.677Z,103002.44
2018-12-26T18:12:13.480Z,103010.71
2018-12-26T18:14:42.279Z,103017.14
2018-12-26T18:17:11.101Z,103019.72
2018-12-26T18:19:39.939Z,103017.15
2018-12-26T18:22:09.763Z,103019.91
2018-12-26T18:24:39.720Z,103006.72
2018-12-26T18:27:08.601Z,103007.23
2018-12-26T18:29:37.470Z,103001.02
2018-12-26T18:32:06.294Z,103000.81
2018-12-26T18:34:35.684Z,102999.17
2018-12-26T18:37:04.502Z,102992.75
2018-12-26T18:39:33.331Z,103001.37
2018-12-26T18:42:02.943Z,102994.95
2018-12-26T18:44:31.777Z,102997.72
2018-12-26T18:47:00.594Z,102993.30
2018-12-26T18:49:29.502Z,102988.53
2018-12-26T18:51:58.291Z,102997.34
2018-12-26T18:54:27.079Z,102999.16
2018-12-26T18:56:56.000Z,102992.22
2018-12-26T18:59:25.370Z,102989.66
2018-12-26T19:01:54.143Z,102999.16
2018-12-26T19:04:23.023Z,102991.30
2018-12-26T19:06:51.844Z,102996.22
2018-12-26T19:09:20.624Z,102993.13
2018-12-26T19:11:49.460Z,102992.93
2018-12-26T19:14:18.571Z,102996.22
2018-12-26T19:16:47.456Z,103000.82
2018-12-26T19:19:16.282Z,102999.70
2018-12-26T19:21:45.136Z,102999.89
2018-12-26T19:24:13.927Z,103003.90
2018-12-26T19:26:43.578Z,103006.09
2018-12-26T19:29:13.374Z,103000.41
2018-12-26T19:31:42.186Z,103000.23
2018-12-26T19:34:11.963Z,102997.12
2018-12-26T19:36:41.425Z,102989.80
2018-12-26T19:39:11.281Z,102993.84
2018-12-26T19:41:43.089Z,102990.00
2018-12-26T19:44:10.807Z,102985.80
2018-12-26T19:46:39.598Z,102987.09
2018-12-26T19:49:08.428Z,102987.97
2018-12-26T19:51:37.715Z,102986.17
2018-12-26T19:54:06.602Z,102977.91
2018-12-26T19:56:35.420Z,102983.97
2018-12-26T19:59:04.973Z,102985.05
2018-12-26T20:01:33.797Z,102981.96
2018-12-26T20:04:03.519Z,102975.15
2018-12-26T20:06:34.111Z,102975.15
2018-12-26T20:09:03.052Z,102976.43
2018-12-26T20:11:31.887Z,102972.22
2018-12-26T20:14:00.741Z,102973.14
2018-12-26T20:16:29.632Z,102966.36
2018-12-26T20:18:58.553Z,102972.78
2018-12-26T20:21:27.427Z,102970.77
2018-12-26T20:23:56.938Z,102957.58
2018-12-26T20:26:25.788Z,102955.02
2018-12-26T20:28:54.575Z,102954.81
2018-12-26T20:31:23.392Z,102957.94
2018-12-26T20:33:52.240Z,102953.34
2018-12-26T20:36:21.766Z,102948.04
2018-12-26T20:38:51.599Z,102942.70
2018-12-26T20:41:21.099Z,102935.37
2018-12-26T20:43:49.900Z,102939.62
2018-12-26T20:46:18.687Z,102937.41
2018-12-26T20:48:47.463Z,102940.53
2018-12-26T20:51:17.867Z,102930.80
2018-12-26T20:53:46.900Z,102929.71
2018-12-26T20:56:15.676Z,102931.72
2018-12-26T20:58:44.474Z,102930.80
2018-12-26T21:01:13.259Z,102930.44
2018-12-26T21:03:42.105Z,102925.30
2018-12-26T21:06:10.897Z,102926.58
2018-12-26T21:08:39.695Z,102923.66
2018-12-26T21:11:08.472Z,102920.01
2018-12-26T21:13:38.478Z,102914.12
2018-12-26T21:16:07.282Z,102923.85
2018-12-26T21:18:36.140Z,102914.48
2018-12-26T21:21:06.388Z,102916.52
2018-12-26T21:23:35.176Z,102910.83
2018-12-26T21:26:04.804Z,102910.27
2018-12-26T21:28:33.632Z,102903.85
2018-12-26T21:31:02.419Z,102910.10
2018-12-26T21:33:31.327Z,102908.81
2018-12-26T21:36:00.117Z,102900.76
2018-12-26T21:38:28.907Z,102892.50
2018-12-26T21:40:57.727Z,102895.23
2018-12-26T21:43:26.906Z,102892.50
2018-12-26T21:45:56.288Z,102893.58
2018-12-26T21:48:25.167Z,102893.22
2018-12-26T21:50:54.592Z,102898.91
2018-12-26T21:53:24.465Z,102901.11
2018-12-26T21:55:55.065Z,102898.70
2018-12-26T21:58:23.851Z,102893.41
2018-12-26T22:00:52.747Z,102896.34
2018-12-26T22:03:21.562Z,102898.34
2018-12-26T22:05:50.879Z,102897.27
2018-12-26T22:08:19.658Z,102900.19
2018-12-26T22:10:48.441Z,102897.98
2018-12-26T22:13:18.440Z,102899.27
2018-12-26T22:15:46.020Z,102900.19
2018-12-26T22:18:14.890Z,102896.34
2018-12-26T22:20:44.853Z,102891.22
2018-12-26T22:23:14.951Z,102895.78
2018-12-26T22:25:43.907Z,102884.60
2018-12-26T22:28:12.823Z,102883.32
2018-12-26T22:30:41.683Z,102881.67
2018-12-26T22:33:11.636Z,102878.02
2018-12-26T22:35:40.417Z,102882.59
2018-12-26T22:38:09.313Z,102878.58
2018-12-26T22:40:38.135Z,102887.36
2018-12-26T22:43:07.699Z,102889.36
2018-12-26T22:48:11.555Z,102885.15
2018-12-26T22:50:43.001Z,102883.50
2018-12-26T22:53:11.759Z,102877.81
2018-12-26T22:55:40.581Z,102881.50
2018-12-26T22:58:10.253Z,102878.17
2018-12-26T23:00:42.855Z,102882.02
2018-12-26T23:03:11.643Z,102884.58
2018-12-26T23:05:40.453Z,102879.64
2018-12-26T23:08:09.259Z,102878.16
2018-12-26T23:10:38.128Z,102874.52
2018-12-26T23:13:06.934Z,102875.99
2018-12-26T23:15:35.814Z,102873.23
2018-12-26T23:18:04.578Z,102875.59
2018-12-26T23:20:33.920Z,102871.75
2018-12-26T23:23:02.858Z,102871.38
2018-12-26T23:25:31.737Z,102864.80
2018-12-26T23:28:00.529Z,102868.45
2018-12-26T23:30:29.376Z,102863.67
2018-12-26T23:32:58.142Z,102854.54
2018-12-26T23:35:26.984Z,102858.39
2018-12-26T23:37:56.309Z,102857.47
2018-12-26T23:40:29.862Z,102848.13
2018-12-26T23:43:00.002Z,102850.13
2018-12-26T23:45:28.906Z,102851.40
2018-12-26T23:47:57.695Z,102847.36
2018-12-26T23:50:26.492Z,102845.36
2018-12-26T23:52:55.283Z,102847.36
2018-12-26T23:55:24.658Z,102849.03
2018-12-26T23:57:53.478Z,102844.44
